Time;durP1;ratioP1;P1;durP2;ratioP2;P2;SDS_P1;SDS_P2;PMS_P1;PMS_P2;Temp;Humidity;BMP_temperature;BMP_pressure;BME280_temperature;BME280_humidity;BME280_pressure;Samples;Min_cycle;Max_cycle;Signal;HPM_P1;HPM_P2
2022/01/24 00:00:52;;;;;;;;;60.25;46.00;;;;;6.23;58.47;102743.25;5048295;28;45462;-60
2022/01/24 00:03:18;;;;;;;;;60.50;45.75;;;;;6.20;58.23;102746.63;5062621;28;45326;-58
2022/01/24 00:05:43;;;;;;;;;59.50;45.25;;;;;6.13;58.31;102734.19;5060919;28;45916;-58
2022/01/24 00:08:09;;;;;;;;;57.25;46.00;;;;;6.15;58.57;102740.34;5062322;28;45340;-58
2022/01/24 00:10:37;;;;;;;;;54.75;43.00;;;;;6.13;58.56;102736.81;5062428;28;45361;-59
2022/01/24 00:15:59;;;;;;;;;54.00;43.00;;;;;6.06;58.55;102734.78;5062216;28;45418;-58
2022/01/24 00:26:41;;;;;;;;;58.25;46.25;;;;;6.07;58.56;102732.22;5062223;27;45359;-58
2022/01/24 00:29:09;;;;;;;;;61.75;49.50;;;;;6.01;58.45;102734.63;5061889;28;45260;-61
2022/01/24 00:31:34;;;;;;;;;58.25;45.50;;;;;5.98;58.52;102724.97;5077753;28;45339;-60
2022/01/24 00:34:00;;;;;;;;;53.50;40.75;;;;;5.98;58.43;102722.34;5060927;28;45556;-60
2022/01/24 00:36:25;;;;;;;;;47.25;38.75;;;;;5.97;58.66;102725.75;5061478;28;45963;-58
2022/01/24 00:38:50;;;;;;;;;57.75;45.25;;;;;5.95;58.56;102718.69;5061892;28;45197;-59
2022/01/24 00:41:19;;;;;;;;;55.50;44.75;;;;;5.95;58.65;102723.91;5062087;28;45344;-59
2022/01/24 00:44:08;;;;;;;;;58.25;45.50;;;;;5.86;58.66;102707.09;5061766;28;46396;-59
2022/01/24 00:46:37;;;;;;;;;59.25;43.50;;;;;5.85;58.45;102705.31;5049663;28;45900;-59
2022/01/24 00:56:59;;;;;;;;;54.00;43.00;;;;;5.88;58.70;102706.28;5061575;28;45356;-59
2022/01/24 00:59:25;;;;;;;;;53.25;42.75;;;;;5.85;58.61;102712.28;5060052;28;45248;-59
2022/01/24 01:01:50;;;;;;;;;53.25;42.00;;;;;5.86;58.64;102704.50;5061790;28;45872;-60
2022/01/24 01:04:16;;;;;;;;;60.25;43.25;;;;;5.86;58.59;102704.50;5061523;28;45564;-59
2022/01/24 01:06:44;;;;;;;;;59.50;43.50;;;;;5.85;58.59;102697.50;5061303;28;46306;-59
2022/01/24 01:20:06;;;;;;;;;51.75;42.00;;;;;5.82;58.61;102699.09;5061304;28;45422;-59
2022/01/24 01:22:31;;;;;;;;;49.00;42.50;;;;;5.79;58.54;102704.22;5061439;28;45301;-59
2022/01/24 01:24:57;;;;;;;;;55.50;45.00;;;;;5.81;58.63;102711.28;5093739;27;45515;-59
2022/01/24 01:27:34;;;;;;;;;49.25;41.75;;;;;5.81;58.50;102699.94;5061301;28;45458;-59
2022/01/24 01:30:10;;;;;;;;;56.00;43.50;;;;;5.79;58.93;102701.59;5059004;28;45395;-59
2022/01/24 01:33:00;;;;;;;;;50.00;41.75;;;;;5.78;58.70;102699.81;5061309;28;45161;-59
2022/01/24 01:56:44;;;;;;;;;55.75;42.75;;;;;5.63;58.69;102685.38;5060880;28;45308;-60
2022/01/24 01:59:11;;;;;;;;;49.50;40.25;;;;;5.66;58.51;102697.63;5060344;28;45344;-60
2022/01/24 02:01:36;;;;;;;;;54.00;43.00;;;;;5.60;58.80;102681.78;5060702;28;45339;-60
2022/01/24 02:04:05;;;;;;;;;53.50;41.75;;;;;5.65;58.52;102690.66;5060778;28;45389;-60
2022/01/24 02:06:31;;;;;;;;;57.75;43.50;;;;;5.64;58.62;102688.88;5060560;28;45298;-60
2022/01/24 02:09:01;;;;;;;;;54.75;40.75;;;;;5.62;58.93;102683.63;5060371;28;46086;-60
2022/01/24 02:11:27;;;;;;;;;55.75;41.75;;;;;5.64;58.56;102692.38;5060400;28;45374;-60
2022/01/24 02:13:53;;;;;;;;;51.25;39.75;;;;;5.63;58.52;102695.81;5060591;28;45265;-60
2022/01/24 02:19:04;;;;;;;;;49.00;41.50;;;;;5.61;58.53;102700.09;5060485;28;45313;-60
2022/01/24 02:24:13;;;;;;;;;52.50;41.75;;;;;5.55;58.66;102694.63;5059282;28;45350;-60
2022/01/24 02:26:40;;;;;;;;;46.50;39.50;;;;;5.54;58.79;102692.84;5092906;27;45949;-60
2022/01/24 02:34:26;;;;;;;;;52.50;42.00;;;;;5.52;58.66;102694.50;5060417;28;45490;-60
2022/01/24 02:36:54;;;;;;;;;49.50;36.50;;;;;5.47;58.78;102685.63;5051013;28;45554;-60
2022/01/24 02:51:05;;;;;;;;;54.00;41.75;;;;;5.37;58.63;102681.78;5059848;28;45768;-60
2022/01/24 02:53:12;;;;;;;;;49.00;38.00;;;;;5.35;58.91;102676.50;5059559;28;45366;-61
2022/01/24 02:55:39;;;;;;;;;55.50;40.25;;;;;5.33;58.95;102667.75;5059853;28;45431;-60
2022/01/24 02:58:04;;;;;;;;;41.00;35.75;;;;;5.33;58.83;102667.75;5059610;28;45248;-60
2022/01/24 03:00:30;;;;;;;;;49.50;40.75;;;;;5.32;59.12;102659.84;5059707;28;46792;-60
2022/01/24 03:02:56;;;;;;;;;50.00;38.00;;;;;5.30;58.80;102659.78;5059950;28;45314;-60
2022/01/24 03:05:21;;;;;;;;;42.50;37.00;;;;;5.31;58.73;102652.88;5059713;27;45319;-60
2022/01/24 03:07:46;;;;;;;;;43.50;36.25;;;;;5.29;58.85;102658.00;5058551;28;45250;-60
2022/01/24 03:10:23;;;;;;;;;45.25;36.50;;;;;5.26;58.85;102649.19;5059424;28;46175;-60
2022/01/24 03:12:58;;;;;;;;;45.00;38.00;;;;;5.27;58.90;102649.28;5059545;28;45283;-60
2022/01/24 03:15:23;;;;;;;;;49.00;39.50;;;;;5.26;58.94;102657.91;5059804;28;45263;-60
2022/01/24 03:17:49;;;;;;;;;44.50;39.00;;;;;5.25;58.75;102647.44;5059730;28;45233;-60
2022/01/24 03:20:14;;;;;;;;;43.75;38.00;;;;;5.23;58.79;102643.88;5059536;28;45970;-60
2022/01/24 03:22:39;;;;;;;;;38.00;35.00;;;;;5.13;58.90;102630.50;5059792;28;45306;-60
2022/01/24 03:25:05;;;;;;;;;36.25;31.25;;;;;5.22;58.90;102648.22;5059615;28;45300;-60
2022/01/24 03:27:30;;;;;;;;;45.25;39.00;;;;;5.21;59.01;102639.47;5092604;27;45992;-60
2022/01/24 03:29:56;;;;;;;;;45.25;37.75;;;;;5.21;58.66;102647.31;5062737;28;45182;-60
2022/01/24 03:32:21;;;;;;;;;49.25;40.50;;;;;5.21;58.77;102649.91;5063290;28;45278;-60
2022/01/24 03:34:46;;;;;;;;;43.50;38.50;;;;;5.20;58.83;102648.13;5063115;28;45366;-60
2022/01/24 03:37:12;;;;;;;;;47.25;36.25;;;;;5.17;58.89;102653.22;5062624;28;45445;-60
2022/01/24 03:39:37;;;;;;;;;49.25;39.50;;;;;5.18;59.01;102654.09;5095303;27;46324;-60
2022/01/24 03:42:03;;;;;;;;;50.00;37.75;;;;;5.17;59.09;102642.81;5062933;28;45237;-60
2022/01/24 03:44:29;;;;;;;;;46.75;32.75;;;;;5.17;59.01;102641.91;5062672;28;45370;-60
2022/01/24 03:52:08;;;;;;;;;52.25;42.50;;;;;5.12;58.79;102639.13;5062717;28;45360;-60
2022/01/24 03:54:33;;;;;;;;;40.75;35.25;;;;;5.11;58.77;102647.78;5062808;28;45186;-60
2022/01/24 03:56:58;;;;;;;;;51.75;39.00;;;;;5.11;58.87;102639.09;5062697;28;45250;-60
2022/01/24 03:59:24;;;;;;;;;44.50;38.75;;;;;5.07;59.09;102632.88;5062363;28;46025;-60
2022/01/24 04:01:49;;;;;;;;;51.50;40.75;;;;;5.09;58.95;102636.41;5062667;28;45216;-60
2022/01/24 04:04:14;;;;;;;;;43.25;35.50;;;;;5.09;58.96;102632.91;5062783;28;45203;-60
2022/01/24 04:06:40;;;;;;;;;52.50;41.50;;;;;5.09;58.98;102635.53;5062382;28;45415;-60
2022/01/24 04:09:05;;;;;;;;;52.75;40.00;;;;;5.08;58.90;102631.13;5062588;28;47064;-60
2022/01/24 04:11:36;;;;;;;;;48.00;39.50;;;;;5.06;59.03;102628.47;5061150;28;45284;-60
2022/01/24 04:14:21;;;;;;;;;48.50;41.00;;;;;5.05;59.11;102627.56;5062542;28;45385;-60
2022/01/24 04:16:53;;;;;;;;;48.75;39.25;;;;;5.03;58.98;102625.72;5062214;28;45332;-60
2022/01/24 04:21:19;;;;;;;;;49.50;41.75;;;;;5.01;58.95;102625.69;5062346;28;45343;-60
2022/01/24 04:22:18;;;;;;;;;53.00;41.00;;;;;4.99;59.14;102624.75;5062222;28;45248;-60
2022/01/24 04:24:46;;;;;;;;;44.75;37.00;;;;;4.97;58.75;102623.78;5062247;28;45201;-60
2022/01/24 04:27:13;;;;;;;;;53.50;40.25;;;;;4.95;59.25;102620.22;5062232;27;45430;-60
2022/01/24 04:29:40;;;;;;;;;48.75;36.75;;;;;4.95;59.00;102619.34;5061632;28;45408;-60
2022/01/24 04:32:06;;;;;;;;;54.75;44.00;;;;;4.92;58.97;102620.13;5062256;28;45319;-60
2022/01/24 04:34:32;;;;;;;;;50.75;40.25;;;;;4.91;59.09;102622.66;5062175;28;45414;-60
2022/01/24 04:36:58;;;;;;;;;52.25;42.75;;;;;4.86;59.04;102622.47;5061783;28;45538;-60
2022/01/24 04:39:24;;;;;;;;;49.75;39.00;;;;;4.87;59.26;102632.97;5061398;28;45431;-60
2022/01/24 04:41:53;;;;;;;;;55.75;43.25;;;;;4.86;59.09;102625.97;5061995;28;45227;-60
2022/01/24 04:47:19;;;;;;;;;45.00;37.75;;;;;4.79;59.42;102612.63;5062019;28;45497;-60
2022/01/24 04:54:57;;;;;;;;;45.50;36.25;;;;;4.78;59.11;102630.00;5061904;28;45307;-60
2022/01/24 04:57:25;;;;;;;;;46.25;38.50;;;;;4.75;59.27;102615.97;5094215;27;45263;-60
2022/01/24 04:59:58;;;;;;;;;42.25;37.50;;;;;4.76;59.07;102626.44;5061669;28;46311;-60
2022/01/24 05:02:24;;;;;;;;;48.50;38.75;;;;;4.75;59.09;102622.03;5061748;28;45346;-60
2022/01/24 05:04:52;;;;;;;;;48.50;38.50;;;;;4.76;59.13;102628.16;5061841;28;45345;-60
2022/01/24 05:07:17;;;;;;;;;53.25;42.25;;;;;4.73;58.92;102618.50;5061394;28;45459;-60
2022/01/24 05:25:39;;;;;;;;;45.50;39.25;;;;;4.67;59.24;102631.28;5061457;28;45410;-60
2022/01/24 05:28:04;;;;;;;;;45.00;34.75;;;;;4.66;59.41;102627.78;5042608;28;45576;-60
2022/01/24 05:30:30;;;;;;;;;44.50;39.25;;;;;4.64;59.58;102624.22;5061242;28;45344;-60
2022/01/24 05:32:55;;;;;;;;;40.75;36.75;;;;;4.63;59.27;102616.34;5061089;28;45390;-60
2022/01/24 05:35:20;;;;;;;;;41.75;34.75;;;;;4.67;59.31;102623.47;5061448;28;45301;-60
2022/01/24 05:37:46;;;;;;;;;39.50;36.00;;;;;4.65;59.09;102623.38;5060781;28;45285;-60
2022/01/24 05:40:11;;;;;;;;;37.25;33.75;;;;;4.64;59.04;102619.03;5060910;28;46105;-58
2022/01/24 05:42:37;;;;;;;;;49.00;41.00;;;;;4.63;59.10;102622.44;5060848;28;45483;-60
2022/01/24 05:45:04;;;;;;;;;47.75;37.50;;;;;4.64;59.40;102615.50;5061239;28;45252;-60
2022/01/24 05:47:30;;;;;;;;;51.00;39.50;;;;;4.63;59.37;102612.03;5060988;28;45656;-60
2022/01/24 05:49:55;;;;;;;;;45.00;36.50;;;;;4.61;59.08;102612.81;5092621;27;48125;-60
2022/01/24 05:52:21;;;;;;;;;48.75;38.50;;;;;4.63;59.17;102611.13;5060500;28;45301;-60
2022/01/24 05:54:46;;;;;;;;;39.50;37.00;;;;;4.61;59.09;102607.59;5060968;28;45224;-60
2022/01/24 05:57:11;;;;;;;;;47.00;39.50;;;;;4.52;59.56;102595.09;5060401;28;45489;-60
2022/01/24 05:59:37;;;;;;;;;48.25;39.50;;;;;4.59;59.57;102615.34;5060608;28;46371;-60
2022/01/24 06:02:04;;;;;;;;;37.75;35.25;;;;;4.59;59.32;102619.66;5060568;28;45386;-60
2022/01/24 06:04:30;;;;;;;;;46.75;39.25;;;;;4.56;59.53;102612.59;5060918;28;45339;-62
2022/01/24 06:06:55;;;;;;;;;49.25;41.00;;;;;4.55;59.31;102614.34;5060608;28;45664;-63
2022/01/24 06:09:20;;;;;;;;;48.00;37.00;;;;;4.52;59.22;102603.78;5060346;28;45292;-67
2022/01/24 06:11:46;;;;;;;;;41.25;34.50;;;;;4.52;59.40;102614.19;5060532;28;45391;-66
2022/01/24 06:14:12;;;;;;;;;47.50;39.25;;;;;4.54;59.26;102609.03;5060573;28;45315;-67
2022/01/24 06:16:38;;;;;;;;;34.00;29.50;;;;;4.50;59.36;102602.84;5060440;28;45534;-65
2022/01/24 06:19:03;;;;;;;;;53.25;42.50;;;;;4.50;59.48;102618.47;5060524;28;47138;-63
2022/01/24 06:21:29;;;;;;;;;47.50;38.25;;;;;4.48;59.42;102611.41;5060284;28;45213;-61
2022/01/24 06:23:54;;;;;;;;;45.50;38.75;;;;;4.48;59.23;102611.41;5060596;28;45331;-63
2022/01/24 06:26:20;;;;;;;;;49.75;40.50;;;;;4.48;59.63;102621.84;5060240;28;45643;-63
2022/01/24 06:28:45;;;;;;;;;40.25;37.25;;;;;4.40;59.47;102611.09;5059936;28;46096;-65
2022/01/24 06:31:12;;;;;;;;;50.75;40.00;;;;;4.44;59.37;102615.63;5060026;28;45255;-64
2022/01/24 06:33:37;;;;;;;;;50.25;40.00;;;;;4.44;59.56;102625.13;5059061;28;45276;-66
2022/01/24 06:36:03;;;;;;;;;40.75;35.25;;;;;4.43;59.74;102626.84;5059761;28;45207;-68
2022/01/24 06:38:29;;;;;;;;;41.75;37.00;;;;;4.43;59.55;102629.44;5060030;28;46401;-60
2022/01/24 06:40:54;;;;;;;;;45.00;38.75;;;;;4.44;59.37;102627.72;5059981;28;45661;-54
2022/01/24 06:43:20;;;;;;;;;47.75;39.50;;;;;4.43;59.27;102618.13;5060137;28;45435;-54
2022/01/24 06:45:45;;;;;;;;;38.75;34.00;;;;;4.42;59.57;102622.47;5059983;28;45272;-56
2022/01/24 06:48:11;;;;;;;;;41.00;35.50;;;;;4.43;59.33;102616.44;5059601;28;45486;-56
2022/01/24 06:50:36;;;;;;;;;46.75;40.50;;;;;4.42;59.54;102627.66;5091877;27;45247;-59
2022/01/24 06:53:02;;;;;;;;;44.50;37.00;;;;;4.42;59.19;102627.66;5060185;28;45417;-59
2022/01/24 06:55:27;;;;;;;;;58.00;45.00;;;;;4.42;59.20;102625.06;5059378;28;45319;-60
2022/01/24 06:57:53;;;;;;;;;46.00;39.75;;;;;4.44;59.35;102635.53;5059562;28;45343;-60
2022/01/24 07:00:25;;;;;;;;;43.75;35.25;;;;;4.42;59.51;102639.81;5059669;28;45296;-63
2022/01/24 07:02:51;;;;;;;;;53.75;41.00;;;;;4.39;59.47;102633.63;5058314;28;45458;-56
2022/01/24 07:05:16;;;;;;;;;44.75;36.25;;;;;4.39;59.46;102638.84;5056585;28;45454;-58
2022/01/24 07:07:41;;;;;;;;;52.50;41.00;;;;;4.39;59.14;102635.38;5059099;28;46357;-59
2022/01/24 07:10:07;;;;;;;;;79.25;59.25;;;;;4.38;59.35;102638.78;5058976;28;45353;-58
2022/01/24 07:12:32;;;;;;;;;46.25;36.25;;;;;4.35;59.42;102631.75;5059171;28;45474;-57
2022/01/24 07:15:04;;;;;;;;;50.00;40.50;;;;;4.37;59.35;102639.59;5059210;28;45494;-56
2022/01/24 07:17:45;;;;;;;;;48.50;38.50;;;;;4.36;59.29;102637.81;5092092;27;48536;-57
2022/01/24 07:20:11;;;;;;;;;38.75;36.00;;;;;4.35;59.48;102646.44;5059547;28;45346;-57
2022/01/24 07:22:36;;;;;;;;;55.25;43.25;;;;;4.33;59.62;102645.50;5059924;28;45224;-57
2022/01/24 07:25:02;;;;;;;;;55.75;44.00;;;;;4.31;59.32;102640.22;5059255;28;45555;-56
2022/01/24 07:27:27;;;;;;;;;47.25;38.00;;;;;4.32;59.46;102642.00;5059475;28;46171;-59
2022/01/24 07:29:52;;;;;;;;;46.50;40.00;;;;;4.31;59.77;102639.34;5059083;28;45247;-61
2022/01/24 07:32:18;;;;;;;;;38.00;32.25;;;;;4.31;59.42;102645.44;5058350;28;45477;-60
2022/01/24 07:34:43;;;;;;;;;44.50;38.50;;;;;4.30;59.42;102643.69;5059486;28;45434;-60
2022/01/24 07:37:09;;;;;;;;;52.75;40.75;;;;;4.28;59.33;102644.44;5059263;28;46295;-60
2022/01/24 07:39:34;;;;;;;;;56.50;43.75;;;;;4.26;59.66;102644.34;5059198;28;45319;-61
2022/01/24 07:42:06;;;;;;;;;49.50;39.50;;;;;4.27;59.80;102647.84;5058589;28;45347;-61
2022/01/24 07:44:31;;;;;;;;;51.25;41.25;;;;;4.26;59.27;102646.06;5059422;28;45289;-60
2022/01/24 07:46:57;;;;;;;;;55.75;40.00;;;;;4.27;59.83;102642.66;5058051;28;46661;-60
2022/01/24 07:49:22;;;;;;;;;49.50;39.25;;;;;4.26;59.51;102635.66;5057948;28;45229;-60
2022/01/24 07:51:47;;;;;;;;;45.50;39.00;;;;;4.27;59.72;102637.44;5059529;28;45279;-60
2022/01/24 07:54:13;;;;;;;;;55.25;39.75;;;;;4.26;59.22;102644.34;5041322;28;45587;-61
2022/01/24 07:56:39;;;;;;;;;57.00;41.00;;;;;4.26;59.62;102646.06;5059141;28;46053;-60
2022/01/24 07:59:05;;;;;;;;;44.75;40.00;;;;;4.27;59.22;102650.47;5059021;28;45331;-60
2022/01/24 08:01:31;;;;;;;;;55.50;40.50;;;;;4.27;59.46;102650.47;5074977;28;45420;-60
2022/01/24 08:03:56;;;;;;;;;53.00;43.50;;;;;4.25;59.74;102655.56;5059215;28;45277;-60
2022/01/24 08:06:22;;;;;;;;;45.50;36.00;;;;;4.27;59.67;102658.28;5058984;28;46210;-60
2022/01/24 08:08:48;;;;;;;;;48.75;37.00;;;;;4.27;59.61;102651.34;5058915;28;45682;-62
2022/01/24 08:11:15;;;;;;;;;51.25;41.75;;;;;4.28;59.79;102665.25;5059409;28;45339;-60
2022/01/24 08:13:40;;;;;;;;;50.50;40.00;;;;;4.28;59.73;102660.06;5059584;28;45329;-60
2022/01/24 08:16:06;;;;;;;;;49.25;40.00;;;;;4.31;59.46;102665.38;5062489;28;45208;-60
2022/01/24 08:18:31;;;;;;;;;48.25;39.50;;;;;4.29;59.62;102656.59;5062464;28;45275;-59
2022/01/24 08:20:56;;;;;;;;;56.25;41.00;;;;;4.32;59.50;102661.94;5062600;28;45228;-59
2022/01/24 08:23:22;;;;;;;;;36.25;34.50;;;;;4.34;59.33;102660.28;5062283;28;45290;-59
2022/01/24 08:25:47;;;;;;;;;46.75;39.75;;;;;4.35;60.09;102664.66;5062397;28;45879;-60
2022/01/24 08:28:12;;;;;;;;;52.00;39.25;;;;;4.39;59.51;102666.59;5062608;28;45224;-60
2022/01/24 08:30:38;;;;;;;;;46.25;39.25;;;;;4.39;59.89;102664.88;5067371;27;45816;-60
2022/01/24 08:33:05;;;;;;;;;51.25;37.25;;;;;4.42;59.40;102661.50;5063920;28;45327;-60
2022/01/24 08:35:31;;;;;;;;;45.50;37.25;;;;;4.45;59.63;102668.56;5072612;27;45405;-60
2022/01/24 08:37:57;;;;;;;;;46.50;36.50;;;;;4.48;59.56;102661.78;5063906;28;45389;-59
2022/01/24 08:40:27;;;;;;;;;41.50;36.25;;;;;4.51;59.85;102661.88;5062032;28;45276;-60
2022/01/24 08:43:01;;;;;;;;;46.50;39.75;;;;;4.55;59.57;102657.69;5061922;28;45414;-59
2022/01/24 08:48:09;;;;;;;;;48.50;38.50;;;;;4.65;59.93;102678.06;5060941;28;45229;-60
2022/01/24 08:50:35;;;;;;;;;49.25;39.50;;;;;4.69;59.93;102674.78;5060703;28;45533;-60
2022/01/24 08:53:02;;;;;;;;;43.25;35.75;;;;;4.73;59.60;102675.81;5062206;28;45224;-60
2022/01/24 08:55:29;;;;;;;;;44.25;38.25;;;;;4.81;59.92;102679.59;5061641;28;46199;-59
2022/01/24 08:57:56;;;;;;;;;45.25;40.50;;;;;4.86;59.96;102672.84;5061748;28;45615;-59
2022/01/24 09:00:22;;;;;;;;;54.75;41.00;;;;;4.90;59.90;102676.47;5062028;28;45379;-59
2022/01/24 09:02:48;;;;;;;;;40.50;36.25;;;;;4.98;59.79;102677.69;5062030;28;45287;-60
2022/01/24 09:05:14;;;;;;;;;52.75;37.50;;;;;5.03;59.73;102676.16;5061616;28;45537;-60
2022/01/24 09:07:39;;;;;;;;;45.50;39.25;;;;;5.11;59.81;102692.09;5061491;28;45310;-60
2022/01/24 09:10:05;;;;;;;;;51.75;37.75;;;;;5.20;59.83;102686.34;5061647;28;45457;-60
2022/01/24 09:12:31;;;;;;;;;39.00;36.25;;;;;5.27;59.77;102688.38;5061644;28;45161;-60
2022/01/24 09:14:56;;;;;;;;;43.75;37.75;;;;;5.35;59.90;102686.06;5060101;28;48197;-60
2022/01/24 09:17:22;;;;;;;;;45.75;37.00;;;;;5.42;59.71;102681.97;5061590;28;45398;-60
2022/01/24 09:19:47;;;;;;;;;43.25;38.25;;;;;5.49;60.10;102681.38;5061461;28;45229;-60
2022/01/24 09:22:12;;;;;;;;;55.25;43.25;;;;;5.60;59.89;102689.59;5061580;28;45289;-60
2022/01/24 09:24:38;;;;;;;;;51.25;39.00;;;;;5.68;59.97;102682.94;5061451;28;45158;-61
2022/01/24 09:27:04;;;;;;;;;47.00;40.75;;;;;5.77;60.03;102688.47;5061391;28;45399;-60
2022/01/24 09:29:29;;;;;;;;;52.25;41.25;;;;;5.86;59.80;102680.09;5061342;28;45398;-61
2022/01/24 09:31:56;;;;;;;;;47.75;38.25;;;;;5.96;59.91;102678.72;5076693;28;45499;-60
2022/01/24 09:34:22;;;;;;;;;43.25;36.25;;;;;6.04;60.10;102679.94;5060082;28;45999;-60
2022/01/24 09:36:48;;;;;;;;;50.25;39.75;;;;;6.15;59.98;102689.03;5061203;28;45482;-60
2022/01/24 09:39:17;;;;;;;;;44.25;38.00;;;;;6.25;59.95;102682.41;5061334;28;45223;-61
2022/01/24 09:41:44;;;;;;;;;45.75;38.00;;;;;6.36;60.11;102682.75;5061253;28;45253;-62
2022/01/24 09:44:09;;;;;;;;;54.00;40.00;;;;;6.46;59.92;102676.13;5060891;28;46302;-61
2022/01/24 09:46:36;;;;;;;;;43.25;34.75;;;;;6.57;60.02;102684.34;5061122;28;45341;-61
2022/01/24 09:49:04;;;;;;;;;42.75;36.75;;;;;6.68;59.92;102688.19;5061185;28;45306;-61
2022/01/24 09:51:29;;;;;;;;;38.75;33.00;;;;;6.75;59.92;102679.69;5060995;28;45232;-61
2022/01/24 09:53:55;;;;;;;;;48.00;38.25;;;;;6.90;60.10;102681.06;5059656;28;46056;-60
2022/01/24 09:56:21;;;;;;;;;54.75;40.50;;;;;7.00;60.07;102689.22;5061095;28;45247;-61
2022/01/24 09:58:46;;;;;;;;;45.00;37.75;;;;;7.09;59.91;102679.91;5060953;28;45174;-61
2022/01/24 10:01:13;;;;;;;;;45.00;38.50;;;;;7.23;59.99;102694.31;5060884;28;45200;-60
2022/01/24 10:03:39;;;;;;;;;47.50;40.25;;;;;7.37;59.98;102693.81;5060903;28;47203;-60
2022/01/24 10:06:04;;;;;;;;;47.75;38.50;;;;;7.49;59.84;102696.81;5060441;28;45487;-60
2022/01/24 10:08:31;;;;;;;;;52.75;40.00;;;;;7.58;59.96;102696.19;5061132;28;45285;-61
2022/01/24 10:11:01;;;;;;;;;52.50;43.50;;;;;7.75;60.04;102691.47;5060494;28;45505;-60
2022/01/24 10:19:18;;;;;;;;;50.00;41.25;;;;;8.19;59.89;102691.81;5060530;28;45265;-60
2022/01/24 10:21:43;;;;;;;;;53.50;42.75;;;;;8.33;60.09;102691.28;5059050;28;45536;-61
2022/01/24 10:24:11;;;;;;;;;52.75;43.75;;;;;8.43;60.01;102686.31;5060280;28;45442;-60
2022/01/24 10:26:37;;;;;;;;;50.00;41.00;;;;;8.57;60.04;102684.09;5060351;28;45328;-60
2022/01/24 10:29:10;;;;;;;;;55.25;42.25;;;;;8.72;60.09;102680.09;5060211;28;45269;-60
2022/01/24 10:31:45;;;;;;;;;51.50;41.25;;;;;8.86;60.01;102685.66;5060120;28;45388;-61
2022/01/24 10:34:22;;;;;;;;;49.75;39.25;;;;;9.00;59.89;102680.75;5058982;28;46937;-61
2022/01/24 10:36:52;;;;;;;;;50.25;40.50;;;;;9.13;60.18;102685.41;5059780;28;45280;-62
2022/01/24 10:39:29;;;;;;;;;54.50;40.75;;;;;9.27;59.99;102684.00;5060239;28;45299;-60
2022/01/24 10:42:52;;;;;;;;;40.00;33.00;;;;;9.41;60.13;102675.53;5059869;28;45306;-60
2022/01/24 10:45:22;;;;;;;;;44.25;36.75;;;;;9.52;59.84;102674.03;4997976;28;46252;-60
2022/01/24 10:47:51;;;;;;;;;35.50;33.00;;;;;9.62;59.81;102666.34;4997942;28;45344;-60
2022/01/24 10:50:28;;;;;;;;;32.50;27.75;;;;;9.75;59.99;102671.88;5038191;28;45217;-60
2022/01/24 10:52:55;;;;;;;;;40.75;34.25;;;;;9.86;59.73;102663.31;5059920;28;45564;-59
2022/01/24 10:55:27;;;;;;;;;33.00;30.50;;;;;9.98;59.78;102663.53;5060038;28;45455;-60
2022/01/24 10:58:04;;;;;;;;;36.50;31.00;;;;;10.10;59.51;102652.41;5059559;28;45244;-60
2022/01/24 11:00:31;;;;;;;;;34.00;30.25;;;;;10.23;59.59;102653.50;5060125;28;45425;-60
2022/01/24 11:02:59;;;;;;;;;36.00;33.00;;;;;10.32;59.41;102648.38;5059497;28;45484;-61
2022/01/24 11:05:27;;;;;;;;;33.00;30.00;;;;;10.43;59.35;102655.59;5059753;28;46229;-60
2022/01/24 11:07:55;;;;;;;;;34.50;32.00;;;;;10.53;59.34;102647.03;5059648;28;45318;-61
2022/01/24 11:10:22;;;;;;;;;35.75;31.50;;;;;10.63;59.11;102643.69;5059976;28;45338;-60
2022/01/24 11:12:47;;;;;;;;;34.00;29.00;;;;;10.71;59.34;102639.41;5059532;28;45556;-61
2022/01/24 11:15:13;;;;;;;;;34.75;30.75;;;;;10.81;59.02;102647.47;5058476;28;47153;-60
2022/01/24 11:17:40;;;;;;;;;36.25;31.00;;;;;10.90;59.07;102644.97;5058345;28;46412;-60
2022/01/24 11:20:08;;;;;;;;;33.75;32.00;;;;;10.99;59.06;102642.50;5059813;28;45403;-61
2022/01/24 11:22:40;;;;;;;;;37.75;33.25;;;;;11.08;58.97;102636.47;5058531;28;45426;-62
2022/01/24 11:25:08;;;;;;;;;38.75;33.50;;;;;11.16;58.93;102632.19;5059471;28;46192;-60
2022/01/24 11:27:34;;;;;;;;;34.75;30.75;;;;;11.28;58.84;102638.47;5059366;28;45375;-60
2022/01/24 11:30:08;;;;;;;;;27.75;26.50;;;;;11.39;58.75;102639.50;5059423;28;45382;-61
2022/01/24 11:32:40;;;;;;;;;35.75;31.00;;;;;11.46;58.79;102636.09;5059416;28;45438;-61
2022/01/24 11:35:07;;;;;;;;;32.50;30.00;;;;;11.58;58.55;102637.09;5058185;28;46747;-61
2022/01/24 11:37:35;;;;;;;;;35.50;31.75;;;;;11.68;58.63;102636.31;5058138;28;45264;-60
2022/01/24 11:40:04;;;;;;;;;35.75;32.75;;;;;11.78;58.36;102634.69;5059140;28;45451;-60
2022/01/24 11:42:33;;;;;;;;;35.25;31.00;;;;;11.82;58.26;102616.31;5058101;28;45352;-60
2022/01/24 11:45:04;;;;;;;;;33.50;30.25;;;;;11.94;58.28;102623.44;5057976;28;47136;-61
2022/01/24 11:47:33;;;;;;;;;35.00;30.50;;;;;12.01;58.15;102622.69;5059567;28;45248;-61
2022/01/24 11:49:59;;;;;;;;;34.75;30.00;;;;;12.07;58.09;102626.25;5061672;28;45393;-61
2022/01/24 11:52:32;;;;;;;;;34.75;31.00;;;;;12.13;57.85;102627.16;5062849;28;45382;-61
2022/01/24 11:55:14;;;;;;;;;28.75;28.00;;;;;12.17;57.91;102626.31;5062567;28;46372;-61
2022/01/24 11:57:47;;;;;;;;;33.50;30.00;;;;;12.24;57.69;102622.00;5062400;28;45452;-60
2022/01/24 12:00:19;;;;;;;;;36.75;30.75;;;;;12.31;57.67;102615.03;5062815;28;45398;-60
2022/01/24 12:02:44;;;;;;;;;34.25;31.25;;;;;12.35;57.71;102608.91;5062579;28;45348;-61
2022/01/24 12:05:10;;;;;;;;;32.50;27.25;;;;;12.38;57.50;102613.31;5062440;28;47057;-61
2022/01/24 12:07:45;;;;;;;;;30.00;26.50;;;;;12.42;57.61;102613.34;5062516;28;45332;-61
2022/01/24 12:10:58;;;;;;;;;26.00;26.00;;;;;12.46;57.46;102615.13;5062677;28;45537;-61
2022/01/24 12:13:27;;;;;;;;;28.75;25.75;;;;;12.47;57.23;102616.91;5059300;28;45404;-60
2022/01/24 12:15:59;;;;;;;;;31.00;26.50;;;;;12.51;57.40;102612.53;5062292;28;46203;-60
2022/01/24 12:18:29;;;;;;;;;32.75;31.75;;;;;12.48;57.09;102605.50;5061070;28;45466;-60
2022/01/24 12:21:00;;;;;;;;;30.50;28.50;;;;;12.56;56.90;102602.03;5062609;28;45242;-60
2022/01/24 12:23:47;;;;;;;;;32.25;31.00;;;;;12.61;56.85;102605.59;5062289;28;45333;-60
2022/01/24 12:26:12;;;;;;;;;31.50;28.75;;;;;12.65;56.52;102612.66;5062430;28;45508;-60
2022/01/24 12:28:43;;;;;;;;;27.50;26.00;;;;;12.70;56.73;102602.13;5061902;28;45294;-60
2022/01/24 12:31:15;;;;;;;;;32.75;28.75;;;;;12.73;56.88;102599.50;5062428;28;45407;-60
2022/01/24 12:33:43;;;;;;;;;30.50;26.00;;;;;12.72;56.93;102595.13;5060859;28;45201;-60
2022/01/24 12:36:12;;;;;;;;;35.00;30.50;;;;;12.80;56.45;102591.66;5062057;28;45340;-60
2022/01/24 12:38:49;;;;;;;;;28.25;25.00;;;;;12.86;56.77;102603.13;5062125;28;45418;-60
2022/01/24 12:41:27;;;;;;;;;30.75;27.75;;;;;12.88;56.30;102602.25;5062053;28;45352;-60
2022/01/24 12:46:16;;;;;;;;;26.75;25.00;;;;;12.95;56.63;102601.41;5061979;28;45403;-59
2022/01/24 12:46:44;;;;;;;;;33.75;28.50;;;;;13.00;56.57;102594.41;5061621;28;45911;-60
2022/01/24 12:49:09;;;;;;;;;29.50;28.75;;;;;13.06;56.62;102592.69;5061911;28;45409;-60
2022/01/24 12:51:37;;;;;;;;;30.25;28.00;;;;;13.10;56.18;102595.31;5061944;28;45971;-60
2022/01/24 12:54:04;;;;;;;;;29.25;27.25;;;;;13.16;55.78;102589.19;5061972;28;45236;-60
2022/01/24 12:56:33;;;;;;;;;32.00;28.50;;;;;13.21;56.26;102587.47;5061900;28;45360;-60
2022/01/24 12:59:00;;;;;;;;;29.25;27.75;;;;;13.29;55.96;102588.34;5061399;28;45327;-60
2022/01/24 13:01:25;;;;;;;;;29.00;25.75;;;;;13.40;55.93;102592.84;5061697;28;45312;-60
2022/01/24 13:03:58;;;;;;;;;28.25;21.75;;;;;13.48;55.97;102591.09;5061607;28;45263;-60
2022/01/24 13:06:28;;;;;;;;;32.00;28.75;;;;;13.56;56.04;102592.00;5061483;28;46513;-60
2022/01/24 13:08:56;;;;;;;;;29.00;26.75;;;;;13.61;55.52;102600.84;5061348;28;45319;-60
2022/01/24 13:11:23;;;;;;;;;32.00;30.25;;;;;13.72;55.86;102590.31;5061805;28;45377;-60